Time;durP1;ratioP1;P1;durP2;ratioP2;P2;SDS_P1;SDS_P2;PMS_P1;PMS_P2;Temp;Humidity;BMP_temperature;BMP_pressure;BME280_temperature;BME280_humidity;BME280_pressure;Samples;Min_cycle;Max_cycle;Signal;HPM_P1;HPM_P2
2022/05/10 00:02:49;;;;;;;0.40;0.40;;;12.90;91.40;;;;;;5112973;28;20199;-64
2022/05/10 00:05:39;;;;;;;0.40;0.40;;;12.90;91.50;;;;;;5112135;28;20249;-65
2022/05/10 00:08:28;;;;;;;0.40;0.40;;;12.80;91.90;;;;;;5113087;28;20602;-65
2022/05/10 00:11:16;;;;;;;0.40;0.40;;;12.70;92.10;;;;;;5115047;28;20196;-65
2022/05/10 00:14:05;;;;;;;0.40;0.40;;;12.70;92.50;;;;;;5114456;28;20483;-65
2022/05/10 00:16:54;;;;;;;0.40;0.40;;;12.60;92.70;;;;;;5114707;28;20204;-65
2022/05/10 00:19:43;;;;;;;0.40;0.40;;;12.60;93.00;;;;;;5113493;28;20205;-64
2022/05/10 00:22:31;;;;;;;0.40;0.40;;;12.50;93.40;;;;;;5111246;28;20204;-65
2022/05/10 00:25:23;;;;;;;0.40;0.40;;;12.50;93.60;;;;;;5113066;28;20246;-64
2022/05/10 00:28:12;;;;;;;0.40;0.40;;;12.50;93.80;;;;;;5112410;28;20210;-64
2022/05/10 00:31:01;;;;;;;0.40;0.40;;;12.50;94.00;;;;;;5114027;28;20200;-67
2022/05/10 00:33:50;;;;;;;0.40;0.40;;;12.40;94.20;;;;;;5113555;28;20228;-65
2022/05/10 00:36:38;;;;;;;0.40;0.40;;;12.40;94.40;;;;;;5111176;28;20220;-64
2022/05/10 00:39:26;;;;;;;0.40;0.40;;;12.30;94.80;;;;;;5112633;28;20204;-66
2022/05/10 00:42:17;;;;;;;0.40;0.40;;;12.30;95.00;;;;;;5112448;28;20230;-64
2022/05/10 00:45:12;;;;;;;0.40;0.40;;;12.40;95.30;;;;;;5114554;28;20247;-65
2022/05/10 00:48:07;;;;;;;0.40;0.40;;;12.20;96.00;;;;;;5112539;28;20230;-66
2022/05/10 00:51:02;;;;;;;0.40;0.40;;;12.20;96.00;;;;;;5111965;28;20204;-65
2022/05/10 00:54:00;;;;;;;0.40;0.40;;;12.10;96.30;;;;;;5111432;28;20253;-66
2022/05/10 00:56:55;;;;;;;0.40;0.40;;;12.00;96.60;;;;;;5105131;28;20220;-65
2022/05/10 00:59:52;;;;;;;0.40;0.40;;;12.00;96.90;;;;;;5090555;28;20246;-64
2022/05/10 01:02:49;;;;;;;0.40;0.40;;;12.00;97.30;;;;;;5088717;28;20208;-65
2022/05/10 01:05:44;;;;;;;0.40;0.40;;;11.90;97.70;;;;;;5086577;28;20310;-65
2022/05/10 01:08:38;;;;;;;0.40;0.40;;;11.90;97.90;;;;;;5088512;28;20261;-65
2022/05/10 01:11:30;;;;;;;0.40;0.40;;;11.80;98.30;;;;;;5082917;28;20954;-65
2022/05/10 01:14:23;;;;;;;0.40;0.40;;;12.10;98.70;;;;;;5075829;28;20262;-65
2022/05/10 01:17:12;;;;;;;0.40;0.40;;;11.80;98.80;;;;;;5074928;28;20220;-65
2022/05/10 01:20:00;;;;;;;0.40;0.40;;;11.70;99.00;;;;;;5077166;28;20219;-65
2022/05/10 01:23:00;;;;;;;0.40;0.40;;;11.70;99.30;;;;;;5076082;28;20200;-65
2022/05/10 01:25:59;;;;;;;0.50;0.50;;;11.60;99.50;;;;;;5075226;28;20224;-64
2022/05/10 01:28:53;;;;;;;0.40;0.40;;;11.60;99.80;;;;;;5075653;28;20228;-66
2022/05/10 01:31:45;;;;;;;0.40;0.40;;;11.50;99.90;;;;;;5076007;28;20258;-65
2022/05/10 01:34:32;;;;;;;0.50;0.50;;;11.60;99.90;;;;;;5099440;23;20580;-68
2022/05/10 01:37:25;;;;;;;0.50;0.50;;;11.50;99.90;;;;;;5090966;28;20820;-68
2022/05/10 01:40:19;;;;;;;0.50;0.50;;;11.50;99.90;;;;;;5090834;28;20284;-69
2022/05/10 01:43:13;;;;;;;0.40;0.40;;;11.50;99.90;;;;;;5090133;28;20954;-67
2022/05/10 01:46:09;;;;;;;0.50;0.50;;;11.40;99.90;;;;;;5091360;28;20438;-69
2022/05/10 01:49:07;;;;;;;0.40;0.40;;;11.40;99.90;;;;;;5091342;28;20425;-68
2022/05/10 01:52:00;;;;;;;0.50;0.50;;;11.30;99.90;;;;;;5091026;28;20950;-67
2022/05/10 01:55:33;;;;;;;0.50;0.50;;;11.30;99.90;;;;;;5091866;28;20545;-68
2022/05/10 01:58:25;;;;;;;0.40;0.40;;;11.20;99.90;;;;;;5090855;28;20228;-68
2022/05/10 02:01:24;;;;;;;0.50;0.50;;;11.20;99.90;;;;;;5093351;28;20761;-67
2022/05/10 02:04:16;;;;;;;0.40;0.40;;;11.10;99.90;;;;;;5092192;28;20449;-67
2022/05/10 02:07:08;;;;;;;0.50;0.50;;;11.20;99.90;;;;;;5090513;28;20505;-68
2022/05/10 02:10:01;;;;;;;0.50;0.50;;;11.20;99.90;;;;;;5090562;28;20790;-68
2022/05/10 02:12:58;;;;;;;0.50;0.50;;;11.20;99.90;;;;;;5089581;28;20422;-68
2022/05/10 02:15:52;;;;;;;0.50;0.50;;;11.00;99.90;;;;;;5090371;28;20470;-68
2022/05/10 02:18:47;;;;;;;0.40;0.40;;;11.10;99.90;;;;;;5089516;28;20468;-68
2022/05/10 02:21:40;;;;;;;0.50;0.50;;;11.00;99.90;;;;;;5091372;28;20426;-67
2022/05/10 02:24:34;;;;;;;0.50;0.50;;;11.00;99.90;;;;;;5091823;28;20474;-69
2022/05/10 02:27:27;;;;;;;0.50;0.50;;;11.00;99.90;;;;;;5090894;28;20422;-67
2022/05/10 02:30:19;;;;;;;0.43;0.43;;;10.90;99.90;;;;;;5094055;28;20464;-69
2022/05/10 02:33:10;;;;;;;0.50;0.50;;;11.00;99.90;;;;;;5094820;28;20208;-67
2022/05/10 02:36:01;;;;;;;0.50;0.50;;;11.00;99.90;;;;;;5094283;28;20449;-68
2022/05/10 02:38:49;;;;;;;0.40;0.40;;;10.90;99.90;;;;;;5093326;28;20457;-69
2022/05/10 02:41:37;;;;;;;0.50;0.50;;;10.90;99.90;;;;;;5094210;28;20422;-70
2022/05/10 02:44:25;;;;;;;0.50;0.50;;;10.90;99.90;;;;;;5094344;28;20484;-71
2022/05/10 02:47:13;;;;;;;0.40;0.40;;;10.80;99.90;;;;;;5093366;28;20498;-69
2022/05/10 02:50:01;;;;;;;0.50;0.50;;;10.80;99.90;;;;;;5094206;28;20469;-69
2022/05/10 02:52:52;;;;;;;0.50;0.50;;;10.80;99.90;;;;;;5092881;28;20942;-68
2022/05/10 02:55:47;;;;;;;0.50;0.50;;;10.80;99.90;;;;;;5094147;28;20447;-69
2022/05/10 02:58:43;;;;;;;0.40;0.40;;;10.70;99.90;;;;;;5074842;28;20475;-68
2022/05/10 03:01:37;;;;;;;0.50;0.50;;;10.80;99.90;;;;;;5073518;28;20538;-70
2022/05/10 03:04:34;;;;;;;0.50;0.50;;;10.70;99.90;;;;;;5074869;28;20536;-68
2022/05/10 03:07:23;;;;;;;0.40;0.40;;;10.70;99.90;;;;;;5073766;28;20454;-68
2022/05/10 03:10:13;;;;;;;0.50;0.50;;;10.60;99.90;;;;;;5074786;28;20426;-68
2022/05/10 03:13:01;;;;;;;0.50;0.50;;;10.70;99.90;;;;;;5074439;28;20939;-68
2022/05/10 03:15:49;;;;;;;0.40;0.40;;;10.50;99.90;;;;;;5072886;28;20524;-68
2022/05/10 03:18:37;;;;;;;0.43;0.43;;;10.50;99.90;;;;;;5089991;28;20867;-67
2022/05/10 03:21:26;;;;;;;0.50;0.50;;;10.60;99.90;;;;;;5094475;28;20441;-69
2022/05/10 03:24:14;;;;;;;0.40;0.40;;;10.50;99.90;;;;;;5094725;28;20970;-69
2022/05/10 03:27:07;;;;;;;0.50;0.50;;;10.50;99.90;;;;;;5092772;28;20499;-69
2022/05/10 03:29:55;;;;;;;0.50;0.50;;;10.50;99.90;;;;;;5094417;28;20473;-68
2022/05/10 03:32:43;;;;;;;0.47;0.47;;;10.50;99.90;;;;;;5093273;28;20425;-68
2022/05/10 03:35:31;;;;;;;0.40;0.40;;;10.50;99.90;;;;;;5092338;28;20915;-68
2022/05/10 03:38:19;;;;;;;0.40;0.40;;;10.50;99.90;;;;;;5092747;28;20464;-69
2022/05/10 03:41:07;;;;;;;0.40;0.40;;;10.50;99.90;;;;;;5092498;28;20419;-68
2022/05/10 03:43:56;;;;;;;0.50;0.50;;;10.50;99.90;;;;;;5092317;28;20476;-67
2022/05/10 03:46:45;;;;;;;0.50;0.50;;;10.50;99.90;;;;;;5092562;28;20426;-68
2022/05/10 03:49:33;;;;;;;0.40;0.40;;;10.50;99.90;;;;;;5093081;28;20472;-68
2022/05/10 03:52:21;;;;;;;0.50;0.50;;;10.50;99.90;;;;;;5092976;28;20462;-68
2022/05/10 03:55:15;;;;;;;0.50;0.50;;;10.50;99.90;;;;;;5092509;28;20537;-68
2022/05/10 03:58:05;;;;;;;0.50;0.50;;;10.60;99.90;;;;;;5093513;28;20418;-68
2022/05/10 04:00:54;;;;;;;0.50;0.50;;;10.60;99.90;;;;;;5093141;28;20539;-68
2022/05/10 04:03:42;;;;;;;0.47;0.47;;;10.60;99.90;;;;;;5094823;28;20453;-68
2022/05/10 04:06:30;;;;;;;0.50;0.50;;;10.60;99.90;;;;;;5094055;28;20556;-67
2022/05/10 04:09:19;;;;;;;0.40;0.40;;;10.70;99.90;;;;;;5092785;28;20986;-68
2022/05/10 04:12:07;;;;;;;0.43;0.43;;;10.70;99.90;;;;;;5092944;28;20426;-68
2022/05/10 04:14:56;;;;;;;0.40;0.40;;;10.80;99.90;;;;;;5093113;28;20450;-71
2022/05/10 04:17:46;;;;;;;0.50;0.50;;;10.80;99.90;;;;;;5092628;28;20422;-67
2022/05/10 04:20:34;;;;;;;0.40;0.40;;;10.80;99.90;;;;;;5093153;28;20950;-67
2022/05/10 04:23:22;;;;;;;0.40;0.40;;;10.90;99.90;;;;;;5093215;28;20430;-69
2022/05/10 04:26:28;;;;;;;0.40;0.40;;;10.90;99.90;;;;;;5091680;28;20414;-67
2022/05/10 04:29:17;;;;;;;0.40;0.40;;;11.00;99.90;;;;;;5093130;28;20462;-68
2022/05/10 04:32:06;;;;;;;0.47;0.47;;;11.00;99.90;;;;;;5092204;28;20845;-67
2022/05/10 04:34:55;;;;;;;0.40;0.40;;;11.10;99.90;;;;;;5091201;28;20458;-68
2022/05/10 04:37:43;;;;;;;0.47;0.47;;;11.10;99.90;;;;;;5091649;28;20479;-69
2022/05/10 04:43:37;;;;;;;0.50;0.50;;;11.30;99.90;;;;;;5090920;28;20463;-68
2022/05/10 04:46:26;;;;;;;0.40;0.40;;;11.30;99.90;;;;;;5092441;28;20487;-68
2022/05/10 04:49:15;;;;;;;0.40;0.40;;;11.30;99.90;;;;;;5092797;28;20506;-69
2022/05/10 04:52:04;;;;;;;0.40;0.40;;;11.40;99.90;;;;;;5092134;28;20469;-67
2022/05/10 04:54:53;;;;;;;0.47;0.47;;;11.50;99.90;;;;;;5092630;28;20838;-70
2022/05/10 04:57:41;;;;;;;0.40;0.40;;;11.60;99.90;;;;;;5092393;28;20568;-68
2022/05/10 05:00:30;;;;;;;0.40;0.40;;;11.70;99.90;;;;;;5091692;28;20419;-69
2022/05/10 05:03:18;;;;;;;0.40;0.40;;;11.80;99.90;;;;;;5092335;28;20433;-68
2022/05/10 05:06:06;;;;;;;0.50;0.50;;;11.80;99.90;;;;;;5092334;28;20450;-68
2022/05/10 05:08:56;;;;;;;0.50;0.50;;;11.90;99.90;;;;;;5091390;28;20454;-68
2022/05/10 05:11:44;;;;;;;0.70;0.70;;;12.00;99.90;;;;;;5091998;28;20480;-68
2022/05/10 05:14:32;;;;;;;0.40;0.40;;;12.10;99.90;;;;;;5093359;28;20446;-69
2022/05/10 05:17:22;;;;;;;0.40;0.40;;;12.30;99.90;;;;;;5092038;28;20277;-68
2022/05/10 05:20:12;;;;;;;0.40;0.40;;;12.30;99.90;;;;;;5092676;28;20192;-68
2022/05/10 05:23:01;;;;;;;0.50;0.50;;;12.50;99.90;;;;;;5092651;28;20445;-68
2022/05/10 05:25:52;;;;;;;0.40;0.40;;;12.70;99.90;;;;;;5092930;28;20456;-67
2022/05/10 05:28:40;;;;;;;0.40;0.40;;;12.70;99.90;;;;;;5092677;28;20543;-68
2022/05/10 05:31:28;;;;;;;0.40;0.40;;;12.90;99.90;;;;;;5091038;28;20414;-72
2022/05/10 05:34:16;;;;;;;0.40;0.40;;;13.10;99.90;;;;;;5091829;28;20659;-68
2022/05/10 05:40:26;;;;;;;0.40;0.40;;;13.30;99.90;;;;;;5010686;28;20195;-68
2022/05/10 05:43:20;;;;;;;0.40;0.40;;;13.40;99.90;;;;;;5008702;28;20202;-69
2022/05/10 05:46:08;;;;;;;0.40;0.40;;;13.60;99.90;;;;;;5066079;28;20229;-67
2022/05/10 05:48:58;;;;;;;0.50;0.50;;;13.80;99.90;;;;;;5086484;28;20738;-68
2022/05/10 05:51:46;;;;;;;0.40;0.40;;;14.00;99.90;;;;;;5092422;28;20554;-68
2022/05/10 05:54:34;;;;;;;0.40;0.40;;;14.20;99.90;;;;;;5091447;28;20220;-68
2022/05/10 05:57:23;;;;;;;0.40;0.40;;;14.30;99.90;;;;;;5091295;28;20287;-68
2022/05/10 06:00:15;;;;;;;0.40;0.40;;;14.30;99.90;;;;;;5091255;28;20680;-68
2022/05/10 06:03:04;;;;;;;0.40;0.40;;;14.30;99.90;;;;;;5071206;28;20197;-68
2022/05/10 06:05:52;;;;;;;0.40;0.40;;;14.40;99.90;;;;;;5086977;28;20247;-67
2022/05/10 06:08:40;;;;;;;0.50;0.50;;;14.40;99.90;;;;;;5096159;28;20276;-68
2022/05/10 06:11:28;;;;;;;0.50;0.50;;;14.40;99.90;;;;;;5091217;28;20668;-68
2022/05/10 06:14:17;;;;;;;0.50;0.50;;;14.50;99.90;;;;;;5074642;28;20216;-69
2022/05/10 06:17:07;;;;;;;0.40;0.40;;;14.50;99.90;;;;;;5088229;28;20283;-68
2022/05/10 06:19:55;;;;;;;0.40;0.40;;;14.50;99.90;;;;;;5083282;28;22339;-70
2022/05/10 06:22:45;;;;;;;0.40;0.40;;;14.60;99.90;;;;;;5094040;28;20208;-70
2022/05/10 06:25:35;;;;;;;0.40;0.40;;;14.60;99.90;;;;;;5095426;28;20250;-69
2022/05/10 06:28:23;;;;;;;0.40;0.40;;;14.50;99.90;;;;;;5096291;28;20196;-68
2022/05/10 06:31:11;;;;;;;0.50;0.50;;;14.50;99.90;;;;;;5096475;28;20207;-69
2022/05/10 06:34:00;;;;;;;0.50;0.50;;;14.50;99.90;;;;;;5096010;28;20227;-68
2022/05/10 06:36:48;;;;;;;0.50;0.50;;;14.60;99.90;;;;;;5087142;28;20204;-70
2022/05/10 06:39:36;;;;;;;0.50;0.50;;;14.70;99.90;;;;;;5075775;28;20751;-69
2022/05/10 06:42:25;;;;;;;0.40;0.40;;;14.70;99.90;;;;;;5075575;28;20603;-68
2022/05/10 06:45:17;;;;;;;0.50;0.50;;;14.70;99.90;;;;;;5074393;28;20224;-68
2022/05/10 06:48:05;;;;;;;0.40;0.40;;;14.80;99.90;;;;;;5074871;28;20687;-68
2022/05/10 06:50:56;;;;;;;0.50;0.50;;;14.80;99.90;;;;;;5090486;28;20219;-68
2022/05/10 06:53:44;;;;;;;0.50;0.50;;;15.00;99.90;;;;;;5095559;28;20215;-68
2022/05/10 06:56:32;;;;;;;0.88;0.88;;;15.00;99.90;;;;;;5093671;28;20272;-68
2022/05/10 06:59:20;;;;;;;0.40;0.40;;;15.20;99.90;;;;;;5093924;28;20188;-68
2022/05/10 07:02:08;;;;;;;0.40;0.40;;;15.30;99.90;;;;;;5095333;28;20200;-68
2022/05/10 07:04:56;;;;;;;0.40;0.40;;;15.50;99.90;;;;;;5084966;28;20230;-67
2022/05/10 07:07:47;;;;;;;0.40;0.40;;;15.60;99.90;;;;;;5094114;28;20217;-68
2022/05/10 07:10:35;;;;;;;0.40;0.40;;;15.80;99.90;;;;;;5088281;28;20744;-67
2022/05/10 07:13:26;;;;;;;0.40;0.40;;;16.00;99.90;;;;;;5083542;28;20245;-69
2022/05/10 07:16:14;;;;;;;0.40;0.40;;;16.20;99.90;;;;;;5094691;28;20278;-68
2022/05/10 07:19:02;;;;;;;0.40;0.40;;;16.40;99.90;;;;;;5094145;28;20211;-68
2022/05/10 07:21:50;;;;;;;0.40;0.40;;;16.70;99.90;;;;;;5094990;28;20753;-69
2022/05/10 07:24:39;;;;;;;0.40;0.40;;;17.00;99.90;;;;;;5074627;28;20225;-68
2022/05/10 07:27:28;;;;;;;0.40;0.40;;;17.30;99.90;;;;;;5073963;28;20614;-69
2022/05/10 07:30:16;;;;;;;0.50;0.50;;;17.60;99.90;;;;;;5088086;28;20227;-70
2022/05/10 07:33:05;;;;;;;1.88;1.77;;;17.80;99.90;;;;;;5083525;28;20246;-70
2022/05/10 07:38:59;;;;;;;0.40;0.40;;;18.20;99.90;;;;;;5094150;28;20287;-69
2022/05/10 07:41:53;;;;;;;0.40;0.40;;;18.30;99.90;;;;;;5092203;28;20686;-70
2022/05/10 07:44:42;;;;;;;0.50;0.50;;;18.40;99.90;;;;;;5092471;28;20302;-70
2022/05/10 07:47:30;;;;;;;0.60;0.60;;;18.50;99.90;;;;;;5073466;28;20201;-69
2022/05/10 07:50:18;;;;;;;0.40;0.40;;;18.70;99.90;;;;;;5072738;28;20620;-70
2022/05/10 07:53:09;;;;;;;0.40;0.40;;;18.80;99.90;;;;;;5086112;28;20283;-69
2022/05/10 07:55:59;;;;;;;0.40;0.40;;;18.80;99.90;;;;;;5074162;28;20275;-69
2022/05/10 07:58:48;;;;;;;1.35;1.35;;;18.90;99.90;;;;;;5073075;28;20280;-69
2022/05/10 08:01:36;;;;;;;0.50;0.50;;;19.10;99.90;;;;;;5087250;28;20760;-71
2022/05/10 08:04:25;;;;;;;0.40;0.40;;;19.10;99.70;;;;;;5088225;28;20723;-69
2022/05/10 08:07:14;;;;;;;0.50;0.50;;;19.00;99.40;;;;;;5072906;28;20276;-69
2022/05/10 08:10:03;;;;;;;0.40;0.40;;;19.10;99.50;;;;;;5072916;28;20212;-69
2022/05/10 08:12:51;;;;;;;0.40;0.40;;;19.10;99.30;;;;;;5072570;28;20280;-69
2022/05/10 08:15:41;;;;;;;0.40;0.40;;;19.10;99.40;;;;;;5072287;28;20285;-70
2022/05/10 08:18:29;;;;;;;0.40;0.40;;;19.10;99.00;;;;;;5072169;28;20252;-70
2022/05/10 08:21:17;;;;;;;0.40;0.40;;;19.40;99.10;;;;;;5073095;28;20192;-70
2022/05/10 08:24:06;;;;;;;0.40;0.40;;;19.40;98.90;;;;;;5073119;28;20196;-68
2022/05/10 08:26:54;;;;;;;0.40;0.40;;;19.40;98.60;;;;;;5071775;28;20192;-69
2022/05/10 08:29:42;;;;;;;0.40;0.40;;;19.60;98.50;;;;;;5071761;28;20228;-71
2022/05/10 08:32:32;;;;;;;0.45;0.45;;;19.70;98.40;;;;;;5071452;28;20226;-71
2022/05/10 08:35:40;;;;;;;0.40;0.40;;;19.70;98.20;;;;;;5070993;28;20834;-68
2022/05/10 08:38:30;;;;;;;0.40;0.40;;;19.80;98.00;;;;;;5071286;28;20208;-69
2022/05/10 08:41:23;;;;;;;0.40;0.40;;;20.00;98.00;;;;;;5071537;28;20275;-70
2022/05/10 08:44:15;;;;;;;0.40;0.40;;;20.00;97.60;;;;;;5072103;28;20220;-69
2022/05/10 08:47:07;;;;;;;1.63;1.52;;;20.10;97.20;;;;;;5073115;28;20228;-71
2022/05/10 08:50:00;;;;;;;0.80;0.80;;;20.20;97.20;;;;;;5080519;28;20223;-70
2022/05/10 08:53:08;;;;;;;0.40;0.40;;;20.30;97.20;;;;;;5090450;28;20392;-69
2022/05/10 08:56:01;;;;;;;0.40;0.40;;;20.40;96.40;;;;;;5092082;28;20262;-71
2022/05/10 08:58:58;;;;;;;0.40;0.40;;;20.50;95.80;;;;;;5072269;28;20217;-69
2022/05/10 09:02:00;;;;;;;0.40;0.40;;;20.50;95.70;;;;;;5072002;28;20192;-70
2022/05/10 09:04:55;;;;;;;0.40;0.40;;;20.60;95.20;;;;;;5071583;28;20633;-70
2022/05/10 09:07:52;;;;;;;0.40;0.40;;;20.70;94.70;;;;;;5071999;28;20696;-69
2022/05/10 09:10:45;;;;;;;0.40;0.40;;;20.80;94.40;;;;;;5071431;28;20591;-70
2022/05/10 09:13:33;;;;;;;0.40;0.40;;;20.70;94.10;;;;;;5090956;28;20227;-72
2022/05/10 09:16:23;;;;;;;0.40;0.40;;;20.90;93.70;;;;;;5092790;28;20193;-69
2022/05/10 09:19:12;;;;;;;0.40;0.40;;;21.00;93.50;;;;;;5092580;28;20203;-68
2022/05/10 09:22:04;;;;;;;0.40;0.40;;;21.00;93.30;;;;;;5092619;28;20203;-69
2022/05/10 09:24:57;;;;;;;0.40;0.40;;;21.00;92.70;;;;;;5091505;28;20261;-70
2022/05/10 09:27:45;;;;;;;0.40;0.40;;;21.20;92.60;;;;;;5091245;28;20629;-69
2022/05/10 09:30:36;;;;;;;0.40;0.40;;;21.20;92.30;;;;;;5092389;28;20634;-69
2022/05/10 09:36:31;;;;;;;0.40;0.40;;;21.40;91.70;;;;;;5092277;28;20210;-69
2022/05/10 09:39:23;;;;;;;0.40;0.40;;;21.60;91.80;;;;;;5095344;28;20207;-70
2022/05/10 09:42:26;;;;;;;0.40;0.40;;;21.70;91.90;;;;;;5095842;28;20192;-69
2022/05/10 09:45:17;;;;;;;0.40;0.40;;;21.90;91.20;;;;;;5075636;28;20220;-70
2022/05/10 09:48:15;;;;;;;0.50;0.50;;;22.00;91.00;;;;;;5073419;28;20236;-70
2022/05/10 09:51:28;;;;;;;0.40;0.40;;;22.10;90.50;;;;;;5094973;28;20696;-70
2022/05/10 09:54:21;;;;;;;0.40;0.40;;;22.30;90.40;;;;;;5102964;28;20312;-69
2022/05/10 09:57:24;;;;;;;0.50;0.50;;;22.40;89.00;;;;;;5099516;28;20204;-69
2022/05/10 10:00:15;;;;;;;0.40;0.40;;;22.40;87.20;;;;;;5092564;28;20752;-68
2022/05/10 10:03:04;;;;;;;0.40;0.40;;;22.50;88.20;;;;;;5086264;28;20228;-70
2022/05/10 10:05:52;;;;;;;0.50;0.50;;;22.60;86.80;;;;;;5081778;28;20224;-69
2022/05/10 10:08:42;;;;;;;0.40;0.40;;;22.70;87.10;;;;;;5077027;28;20697;-69
2022/05/10 10:11:33;;;;;;;0.40;0.40;;;22.80;86.40;;;;;;5091231;28;20219;-72
2022/05/10 10:14:38;;;;;;;0.40;0.40;;;22.90;84.80;;;;;;5075151;28;20215;-69
2022/05/10 10:17:29;;;;;;;0.40;0.40;;;23.10;85.10;;;;;;5074952;28;20258;-70
2022/05/10 10:20:26;;;;;;;0.40;0.40;;;23.10;84.60;;;;;;5075057;28;20201;-69
2022/05/10 10:23:22;;;;;;;0.40;0.40;;;23.20;83.50;;;;;;5089233;28;20215;-69
2022/05/10 10:26:17;;;;;;;0.40;0.40;;;23.40;84.20;;;;;;5076254;28;20221;-68
2022/05/10 10:29:12;;;;;;;0.40;0.40;;;23.50;83.70;;;;;;5074546;28;20248;-69
2022/05/10 10:32:06;;;;;;;0.40;0.40;;;23.60;83.80;;;;;;5075388;28;20689;-70
2022/05/10 10:35:01;;;;;;;0.40;0.40;;;23.70;82.20;;;;;;5074109;28;20703;-68
2022/05/10 10:37:54;;;;;;;0.40;0.40;;;23.80;81.10;;;;;;5074019;28;20246;-69
2022/05/10 10:40:45;;;;;;;2.15;2.05;;;23.90;79.90;;;;;;5073944;28;20208;-69
2022/05/10 10:43:40;;;;;;;0.50;0.50;;;24.00;78.80;;;;;;5074223;28;20832;-68
2022/05/10 10:46:32;;;;;;;0.40;0.40;;;24.10;78.60;;;;;;5074902;28;20196;-68
2022/05/10 10:49:26;;;;;;;0.40;0.40;;;24.20;78.30;;;;;;5073379;28;20674;-68
2022/05/10 10:52:17;;;;;;;0.40;0.40;;;24.40;79.40;;;;;;5074240;28;20747;-68
2022/05/10 10:55:07;;;;;;;0.50;0.50;;;24.60;78.60;;;;;;5087248;28;20220;-70
2022/05/10 10:58:05;;;;;;;0.50;0.50;;;24.90;77.00;;;;;;5091039;28;20223;-69
2022/05/10 11:00:57;;;;;;;0.60;0.60;;;25.10;75.60;;;;;;5091393;28;20197;-67
2022/05/10 11:03:54;;;;;;;0.40;0.40;;;25.00;74.50;;;;;;5074179;28;20209;-68
2022/05/10 11:06:49;;;;;;;0.65;0.65;;;25.30;76.10;;;;;;5074825;28;20232;-69
2022/05/10 11:09:46;;;;;;;0.40;0.40;;;25.70;74.30;;;;;;5072843;28;20196;-69
2022/05/10 11:12:45;;;;;;;2.10;2.00;;;26.10;74.30;;;;;;5086778;28;20747;-69
2022/05/10 11:15:42;;;;;;;0.60;0.60;;;26.30;71.70;;;;;;5093012;28;20227;-69
2022/05/10 11:18:40;;;;;;;0.70;0.70;;;26.50;71.60;;;;;;5094659;28;20208;-68
2022/05/10 11:21:39;;;;;;;0.40;0.40;;;26.40;71.20;;;;;;5092851;28;20204;-69
2022/05/10 11:24:36;;;;;;;0.40;0.40;;;26.30;72.20;;;;;;5093355;28;20255;-69
2022/05/10 11:27:43;;;;;;;0.40;0.40;;;26.40;72.20;;;;;;5093366;28;20196;-69
2022/05/10 11:30:40;;;;;;;0.50;0.50;;;26.60;71.30;;;;;;5094193;28;20552;-69
2022/05/10 11:33:40;;;;;;;0.57;0.57;;;26.70;69.70;;;;;;5092971;28;20692;-69
2022/05/10 11:36:39;;;;;;;0.40;0.40;;;26.80;69.90;;;;;;5093844;28;20257;-68
2022/05/10 11:39:50;;;;;;;0.40;0.40;;;26.80;69.70;;;;;;5092286;28;20277;-69
2022/05/10 11:42:57;;;;;;;0.40;0.40;;;26.70;68.50;;;;;;5093456;28;20196;-69
2022/05/10 11:46:05;;;;;;;0.40;0.40;;;26.70;68.90;;;;;;5094310;28;20354;-68
2022/05/10 11:49:20;;;;;;;0.82;0.82;;;26.80;69.30;;;;;;5094290;28;20230;-69
2022/05/10 11:52:33;;;;;;;0.50;0.50;;;27.00;66.80;;;;;;5091482;28;20656;-69
2022/05/10 11:55:33;;;;;;;0.50;0.50;;;27.40;66.10;;;;;;5091629;28;20231;-67
2022/05/10 11:58:23;;;;;;;0.70;0.70;;;27.80;64.80;;;;;;5090499;28;20234;-67
2022/05/10 12:01:13;;;;;;;0.70;0.70;;;28.20;65.40;;;;;;5092913;28;20204;-66
2022/05/10 12:04:02;;;;;;;0.40;0.40;;;28.50;63.70;;;;;;5084660;28;20230;-66
2022/05/10 12:06:50;;;;;;;1.58;1.13;;;28.60;63.90;;;;;;5092318;28;20962;-66
2022/05/10 12:10:03;;;;;;;0.40;0.40;;;28.70;62.90;;;;;;5093070;28;20199;-66
2022/05/10 12:12:59;;;;;;;0.40;0.40;;;28.90;61.90;;;;;;5083482;28;20236;-67
2022/05/10 12:22:09;;;;;;;0.40;0.40;;;28.60;60.50;;;;;;5047858;28;20285;-66
2022/05/10 12:24:57;;;;;;;0.40;0.40;;;28.50;60.70;;;;;;5093026;28;20709;-67
2022/05/10 12:28:01;;;;;;;0.65;0.65;;;28.40;61.90;;;;;;5092823;28;20215;-66
2022/05/10 12:30:49;;;;;;;0.40;0.40;;;28.60;62.00;;;;;;5092387;28;20204;-67
2022/05/10 12:33:38;;;;;;;0.40;0.40;;;28.80;60.60;;;;;;5091735;28;20219;-66
2022/05/10 12:36:31;;;;;;;0.40;0.40;;;29.10;60.60;;;;;;5091970;28;20192;-67
2022/05/10 12:39:24;;;;;;;0.60;0.60;;;29.60;59.50;;;;;;5091065;28;20218;-66
2022/05/10 12:42:18;;;;;;;0.60;0.60;;;30.30;58.70;;;;;;5092064;28;20274;-67
2022/05/10 12:45:23;;;;;;;1.02;1.02;;;31.40;56.70;;;;;;5092313;28;20295;-67
2022/05/10 12:48:29;;;;;;;0.40;0.40;;;32.70;55.50;;;;;;5092800;28;20208;-68
2022/05/10 12:51:34;;;;;;;0.40;0.40;;;33.60;52.80;;;;;;5092307;28;20196;-67
2022/05/10 12:54:27;;;;;;;0.40;0.40;;;33.10;52.30;;;;;;5092648;28;20220;-67
2022/05/10 12:57:22;;;;;;;0.40;0.40;;;32.60;51.70;;;;;;5092665;28;20227;-67
2022/05/10 13:00:14;;;;;;;0.40;0.40;;;33.80;51.90;;;;;;5090233;28;20674;-67
2022/05/10 13:03:08;;;;;;;0.40;0.40;;;35.40;48.70;;;;;;5090586;28;20196;-67
2022/05/10 13:06:10;;;;;;;0.40;0.40;;;34.80;47.90;;;;;;5082957;28;20805;-68
2022/05/10 13:09:18;;;;;;;0.40;0.40;;;34.00;49.10;;;;;;5091907;28;20200;-69
2022/05/10 13:12:10;;;;;;;0.40;0.40;;;35.40;47.90;;;;;;5084464;28;20253;-68
2022/05/10 13:15:08;;;;;;;0.40;0.40;;;35.90;46.30;;;;;;5090811;28;20300;-68
2022/05/10 13:18:00;;;;;;;1.75;0.70;;;35.90;46.00;;;;;;5087795;28;20191;-68
2022/05/10 13:20:51;;;;;;;0.50;0.50;;;35.90;46.00;;;;;;5088975;28;20318;-68
2022/05/10 13:23:41;;;;;;;0.40;0.40;;;36.20;44.80;;;;;;5091224;28;20227;-68
2022/05/10 13:26:29;;;;;;;0.40;0.40;;;35.10;46.30;;;;;;5092254;28;20753;-68
2022/05/10 13:29:18;;;;;;;0.55;0.55;;;33.90;46.30;;;;;;5091512;28;20664;-68
2022/05/10 13:32:11;;;;;;;0.40;0.40;;;33.20;46.60;;;;;;5091364;28;20299;-68
2022/05/10 13:35:10;;;;;;;0.93;0.93;;;33.70;48.20;;;;;;5091275;28;20223;-69
2022/05/10 13:38:00;;;;;;;0.60;0.60;;;35.80;46.40;;;;;;5092334;28;20195;-69
2022/05/10 13:40:49;;;;;;;0.40;0.40;;;35.90;45.50;;;;;;5092228;28;20293;-69
2022/05/10 13:43:42;;;;;;;0.40;0.40;;;35.80;44.90;;;;;;5091713;28;20199;-68
2022/05/10 13:46:35;;;;;;;1.15;1.15;;;36.10;44.70;;;;;;5091575;28;20238;-69
2022/05/10 13:49:27;;;;;;;0.40;0.40;;;36.40;44.50;;;;;;5091560;28;20703;-69
2022/05/10 13:52:27;;;;;;;0.40;0.40;;;36.80;43.80;;;;;;5091301;28;20251;-69
2022/05/10 13:55:18;;;;;;;0.50;0.50;;;36.00;43.70;;;;;;5090940;28;20743;-67
2022/05/10 13:58:08;;;;;;;0.75;0.52;;;34.50;44.20;;;;;;5091985;28;20233;-69
2022/05/10 14:00:56;;;;;;;0.40;0.40;;;33.20;45.10;;;;;;5090395;28;20279;-69
2022/05/10 14:03:44;;;;;;;0.60;0.60;;;32.40;46.60;;;;;;5089132;28;20196;-69
2022/05/10 14:06:33;;;;;;;0.40;0.40;;;31.80;46.70;;;;;;5090768;28;20353;-69
2022/05/10 14:09:25;;;;;;;0.40;0.40;;;31.60;47.50;;;;;;5089853;28;20676;-69
2022/05/10 14:12:16;;;;;;;0.40;0.40;;;31.70;47.50;;;;;;5090373;28;20587;-68
2022/05/10 14:15:20;;;;;;;0.40;0.40;;;32.50;47.40;;;;;;5090431;28;20329;-68
2022/05/10 14:18:11;;;;;;;0.40;0.40;;;33.60;45.60;;;;;;5090285;28;20216;-69
2022/05/10 14:21:02;;;;;;;0.50;0.50;;;33.80;45.40;;;;;;5089508;28;20334;-68
2022/05/10 14:23:53;;;;;;;24.42;3.90;;;33.50;44.90;;;;;;5089363;28;20555;-67
2022/05/10 14:26:48;;;;;;;0.60;0.60;;;33.70;45.00;;;;;;5093763;28;20223;-68
2022/05/10 14:29:42;;;;;;;0.40;0.40;;;34.40;44.40;;;;;;5093612;28;20224;-69
2022/05/10 14:32:34;;;;;;;0.40;0.40;;;34.30;44.90;;;;;;5092355;28;20271;-69
2022/05/10 14:35:30;;;;;;;0.40;0.40;;;33.50;45.90;;;;;;5093539;28;20261;-69
2022/05/10 14:38:24;;;;;;;0.50;0.50;;;33.10;45.80;;;;;;5093696;28;20265;-69
2022/05/10 14:41:12;;;;;;;0.40;0.40;;;33.10;46.70;;;;;;5094089;28;20203;-69
2022/05/10 14:44:18;;;;;;;0.40;0.40;;;34.60;45.60;;;;;;5094601;28;20245;-69
2022/05/10 14:47:17;;;;;;;0.40;0.40;;;35.10;43.90;;;;;;5094246;28;20200;-69
2022/05/10 14:50:06;;;;;;;0.68;0.68;;;34.70;43.70;;;;;;5090465;28;20237;-69
2022/05/10 14:53:10;;;;;;;0.40;0.40;;;34.40;44.40;;;;;;5093787;28;20302;-69
2022/05/10 14:56:16;;;;;;;0.40;0.40;;;34.60;44.00;;;;;;5094006;28;20216;-69
2022/05/10 14:59:18;;;;;;;0.63;0.60;;;34.00;43.90;;;;;;5073696;28;20232;-69
2022/05/10 15:02:22;;;;;;;0.40;0.40;;;33.50;44.40;;;;;;5074690;28;20203;-68
2022/05/10 15:05:12;;;;;;;0.40;0.40;;;33.00;44.80;;;;;;5073793;28;20212;-69
2022/05/10 15:08:00;;;;;;;0.40;0.40;;;32.70;45.90;;;;;;5086053;28;20281;-69
2022/05/10 15:10:50;;;;;;;0.40;0.40;;;33.70;45.70;;;;;;5092401;28;20308;-69
2022/05/10 15:13:38;;;;;;;0.40;0.40;;;34.60;44.40;;;;;;5093354;28;20774;-69
2022/05/10 15:16:28;;;;;;;1.08;1.00;;;35.30;44.00;;;;;;5092578;28;20199;-69
2022/05/10 15:19:16;;;;;;;0.40;0.40;;;35.50;43.30;;;;;;5094012;28;20206;-69